FHSBC LFOB-LFOB
Flight info
| Callsign | FHSBC |
|---|---|
| Flight time | N/A |
| Altitude | 5000 |
| Route | DCT |
| Aircraft | C172/L-SFG/C |
Departure
| Time | 2026-05-08 20:53 |
|---|---|
| Airport | Beauvais-Tillé airport (LFOB) |
Arrival
| Time | N/A |
|---|---|
| Airport | Beauvais-Tillé airport (LFOB) |
| Time | Latitude | Longitude | Altitude | Speed | Heading |
|---|---|---|---|---|---|
| 2026-05-08 20:17 | 49.46255 | 2.12204 | 362 ft | 0 kts | 131° |
| 2026-05-08 20:45 | 49.46255 | 2.12205 | 362 ft | 0 kts | 129° |
| 2026-05-08 20:47 | 49.46254 | 2.12206 | 362 ft | 2 kts | 129° |
| 2026-05-08 20:47 | 49.46240 | 2.12246 | 362 ft | 1 kts | 99° |
| 2026-05-08 20:47 | 49.46222 | 2.12299 | 363 ft | 13 kts | 133° |
| 2026-05-08 20:48 | 49.46136 | 2.12222 | 361 ft | 23 kts | 223° |
| 2026-05-08 20:48 | 49.45985 | 2.12010 | 356 ft | 29 kts | 222° |
| 2026-05-08 20:48 | 49.45844 | 2.11824 | 348 ft | 24 kts | 221° |
| 2026-05-08 20:48 | 49.45724 | 2.11663 | 344 ft | 19 kts | 221° |
| 2026-05-08 20:49 | 49.45639 | 2.11546 | 343 ft | 13 kts | 219° |
| 2026-05-08 20:49 | 49.45570 | 2.11454 | 342 ft | 11 kts | 221° |
| 2026-05-08 20:49 | 49.45557 | 2.11436 | 341 ft | 0 kts | 221° |
| 2026-05-08 20:51 | 49.45549 | 2.11426 | 341 ft | 8 kts | 220° |
| 2026-05-08 20:52 | 49.45468 | 2.11311 | 340 ft | 17 kts | 224° |
| 2026-05-08 20:52 | 49.45396 | 2.11386 | 340 ft | 32 kts | 123° |
| 2026-05-08 20:52 | 49.45178 | 2.11877 | 358 ft | 70 kts | 111° |
| 2026-05-08 20:52 | 49.44904 | 2.12542 | 521 ft | 72 kts | 113° |
| 2026-05-08 20:53 | 49.44688 | 2.13226 | 684 ft | 74 kts | 103° |
| 2026-05-08 20:53 | 49.44546 | 2.13936 | 888 ft | 69 kts | 93° |
| 2026-05-08 20:53 | 49.44390 | 2.14655 | 1050 ft | 71 kts | 112° |